Time;durP1;ratioP1;P1;durP2;ratioP2;P2;SDS_P1;SDS_P2;PMS_P1;PMS_P2;Temp;Humidity;BMP_temperature;BMP_pressure;BME280_temperature;BME280_humidity;BME280_pressure;Samples;Min_cycle;Max_cycle;Signal;HPM_P1;HPM_P2
2022/04/10 00:00:54;;;;;;;0.28;0.28;;;3.40;99.90;;;;;;5055404;28;20025;-74
2022/04/10 00:03:20;;;;;;;0.40;0.40;;;3.60;99.90;;;;;;5037651;28;20048;-74
2022/04/10 00:05:46;;;;;;;1.38;1.27;;;3.70;99.90;;;;;;5038279;28;20068;-74
2022/04/10 00:08:12;;;;;;;0.40;0.40;;;3.70;99.90;;;;;;5055934;28;20076;-74
2022/04/10 00:10:38;;;;;;;0.60;0.60;;;3.70;99.90;;;;;;5038184;28;20082;-74
2022/04/10 00:13:03;;;;;;;0.30;0.30;;;3.70;99.90;;;;;;5055568;28;20369;-73
2022/04/10 00:15:29;;;;;;;0.32;0.32;;;3.70;99.90;;;;;;5055427;28;20392;-74
2022/04/10 00:17:55;;;;;;;0.30;0.30;;;3.80;99.90;;;;;;5055600;28;20036;-74
2022/04/10 00:20:21;;;;;;;0.30;0.30;;;3.90;99.90;;;;;;5055256;28;20032;-74
2022/04/10 00:22:48;;;;;;;16.05;1.02;;;3.90;99.90;;;;;;5055421;28;20025;-74
2022/04/10 00:25:16;;;;;;;0.30;0.30;;;3.80;99.90;;;;;;5021104;28;20067;-74
2022/04/10 00:27:42;;;;;;;0.30;0.30;;;3.80;99.90;;;;;;5037314;28;20074;-74
2022/04/10 00:30:13;;;;;;;2.78;0.82;;;3.70;99.90;;;;;;5055559;28;20524;-74
2022/04/10 00:32:39;;;;;;;0.40;0.40;;;3.60;99.90;;;;;;5055670;28;20424;-74
2022/04/10 00:35:07;;;;;;;0.20;0.20;;;3.50;99.90;;;;;;5037144;28;20775;-74
2022/04/10 00:37:33;;;;;;;0.70;0.57;;;3.60;99.90;;;;;;5037741;28;20098;-74
2022/04/10 00:39:59;;;;;;;0.30;0.30;;;3.60;99.90;;;;;;5055611;28;20028;-74
2022/04/10 00:42:36;;;;;;;0.60;0.60;;;3.60;99.90;;;;;;5055238;28;20051;-74
2022/04/10 00:45:02;;;;;;;0.40;0.40;;;3.40;99.90;;;;;;5056120;28;20500;-74
2022/04/10 00:47:28;;;;;;;0.73;0.73;;;3.20;99.90;;;;;;5054911;28;20025;-73
2022/04/10 00:49:57;;;;;;;0.30;0.30;;;3.20;99.90;;;;;;5037330;28;20029;-74
2022/04/10 00:52:25;;;;;;;0.22;0.22;;;3.10;99.90;;;;;;5054548;28;20389;-73
2022/04/10 00:54:51;;;;;;;0.30;0.30;;;3.30;99.90;;;;;;5037164;28;20544;-74
2022/04/10 00:57:18;;;;;;;0.20;0.20;;;3.30;99.90;;;;;;5020343;28;20021;-74
2022/04/10 00:59:43;;;;;;;2.38;0.65;;;3.30;99.90;;;;;;5020092;28;20029;-74
2022/04/10 01:02:09;;;;;;;0.65;0.65;;;3.20;99.90;;;;;;5054010;28;20028;-74
2022/04/10 01:04:36;;;;;;;0.47;0.47;;;3.20;99.90;;;;;;5054711;28;20485;-74
2022/04/10 01:07:03;;;;;;;1.95;1.10;;;3.20;99.90;;;;;;5036562;28;20496;-74
2022/04/10 01:09:31;;;;;;;1.90;1.23;;;3.00;99.90;;;;;;5036493;28;20508;-74
2022/04/10 01:11:57;;;;;;;1.38;1.05;;;2.90;99.90;;;;;;5036588;28;20029;-74
2022/04/10 01:14:23;;;;;;;4.28;1.05;;;2.80;99.90;;;;;;5054428;28;20033;-74
2022/04/10 01:16:49;;;;;;;2.10;1.15;;;2.70;99.90;;;;;;5054377;28;20028;-74
2022/04/10 01:19:16;;;;;;;0.38;0.38;;;2.70;99.90;;;;;;5036303;28;20025;-74
2022/04/10 01:21:44;;;;;;;0.30;0.30;;;2.70;99.90;;;;;;5054716;28;20484;-74
2022/04/10 01:24:13;;;;;;;0.80;0.80;;;2.60;99.90;;;;;;5054681;28;20566;-74
2022/04/10 01:26:40;;;;;;;3.17;0.88;;;2.60;99.90;;;;;;5054216;28;20478;-74
2022/04/10 01:29:08;;;;;;;0.82;0.80;;;2.40;99.90;;;;;;5036511;28;20104;-74
2022/04/10 01:31:37;;;;;;;0.30;0.30;;;2.30;99.90;;;;;;5019404;28;20086;-74
2022/04/10 01:34:05;;;;;;;2.42;1.95;;;2.40;99.90;;;;;;5036074;28;20031;-74
2022/04/10 01:36:32;;;;;;;2.58;2.35;;;2.40;99.90;;;;;;5036164;28;20029;-74
2022/04/10 01:38:58;;;;;;;0.63;0.50;;;2.50;99.90;;;;;;5037010;28;20076;-74
2022/04/10 01:41:26;;;;;;;5.47;1.55;;;2.50;99.90;;;;;;5053867;28;20048;-74
2022/04/10 01:43:53;;;;;;;0.95;0.88;;;2.50;99.90;;;;;;5053874;28;20061;-74
2022/04/10 01:46:21;;;;;;;1.75;1.40;;;2.50;99.90;;;;;;5035968;28;20026;-74
2022/04/10 01:48:47;;;;;;;0.45;0.40;;;2.50;99.90;;;;;;5020043;28;20443;-74
2022/04/10 01:51:13;;;;;;;1.17;0.77;;;2.50;99.90;;;;;;5019904;28;20028;-74
2022/04/10 01:53:39;;;;;;;0.68;0.68;;;2.50;99.90;;;;;;5035738;28;20492;-73
2022/04/10 01:56:06;;;;;;;0.70;0.70;;;2.40;99.90;;;;;;5052497;28;20032;-72
2022/04/10 01:58:35;;;;;;;0.50;0.50;;;2.40;99.90;;;;;;5034132;28;20049;-73
2022/04/10 02:01:03;;;;;;;2.38;1.70;;;2.40;99.90;;;;;;5052354;28;20022;-72
2022/04/10 02:03:28;;;;;;;0.30;0.30;;;2.40;99.90;;;;;;5051967;28;20017;-72
2022/04/10 02:05:55;;;;;;;0.75;0.75;;;2.50;99.90;;;;;;5051860;28;20040;-72
2022/04/10 02:08:21;;;;;;;0.40;0.40;;;2.40;99.90;;;;;;5051968;28;20017;-72
2022/04/10 02:10:47;;;;;;;1.75;1.15;;;2.40;99.90;;;;;;5051965;28;20029;-72
2022/04/10 02:13:13;;;;;;;0.50;0.50;;;2.30;99.90;;;;;;5054671;28;20074;-73
2022/04/10 02:15:40;;;;;;;0.50;0.50;;;2.30;99.90;;;;;;5055545;28;20033;-72
2022/04/10 02:18:06;;;;;;;3.13;1.10;;;2.30;99.90;;;;;;5038005;28;20024;-72
2022/04/10 02:20:32;;;;;;;0.30;0.30;;;2.30;99.90;;;;;;5055609;28;20068;-72
2022/04/10 02:22:58;;;;;;;0.85;0.85;;;2.30;99.90;;;;;;5037781;28;20025;-72
2022/04/10 02:25:24;;;;;;;0.95;0.90;;;2.20;99.90;;;;;;5055568;28;20033;-72
2022/04/10 02:27:50;;;;;;;1.15;1.05;;;2.20;99.90;;;;;;5037667;28;20118;-72
2022/04/10 02:30:18;;;;;;;0.50;0.50;;;2.20;99.90;;;;;;5055686;28;20104;-72
2022/04/10 02:32:44;;;;;;;1.20;0.52;;;2.30;99.90;;;;;;5055692;28;20140;-72
2022/04/10 02:35:10;;;;;;;2.00;0.70;;;2.30;99.90;;;;;;5037567;28;20036;-72
2022/04/10 02:37:37;;;;;;;0.35;0.35;;;2.20;99.90;;;;;;5055204;28;20095;-72
2022/04/10 02:40:04;;;;;;;0.30;0.30;;;2.20;99.90;;;;;;5055358;28;20029;-72
2022/04/10 02:42:33;;;;;;;0.30;0.30;;;2.30;99.90;;;;;;5055344;28;20033;-73
2022/04/10 02:45:02;;;;;;;0.52;0.52;;;2.40;99.90;;;;;;5055537;28;20019;-73
2022/04/10 02:47:30;;;;;;;0.30;0.30;;;2.50;99.90;;;;;;5055172;28;20100;-73
2022/04/10 02:49:56;;;;;;;2.35;1.52;;;2.50;99.90;;;;;;5055200;28;20538;-72
2022/04/10 02:52:22;;;;;;;0.68;0.68;;;2.70;99.90;;;;;;5055538;28;20025;-72
2022/04/10 02:54:48;;;;;;;0.88;0.85;;;2.70;99.90;;;;;;5055376;28;20029;-72
2022/04/10 02:57:14;;;;;;;0.30;0.30;;;2.80;99.90;;;;;;5055219;28;20097;-72
2022/04/10 02:59:40;;;;;;;0.28;0.28;;;2.80;99.90;;;;;;5055267;28;20104;-72
2022/04/10 03:02:06;;;;;;;0.30;0.30;;;2.80;99.90;;;;;;5037129;28;20024;-73
2022/04/10 03:04:31;;;;;;;0.75;0.75;;;2.80;99.90;;;;;;5055037;28;20025;-72
2022/04/10 03:06:57;;;;;;;1.13;0.57;;;2.70;99.90;;;;;;5054815;28;20426;-72
2022/04/10 03:09:23;;;;;;;0.22;0.22;;;2.80;99.90;;;;;;5055186;28;20418;-73
2022/04/10 03:11:49;;;;;;;0.77;0.77;;;2.70;99.90;;;;;;5055157;28;20024;-73
2022/04/10 03:14:15;;;;;;;0.25;0.25;;;2.80;99.90;;;;;;5055211;28;20033;-72
2022/04/10 03:16:42;;;;;;;0.30;0.30;;;2.80;99.90;;;;;;5054575;28;20029;-72
2022/04/10 03:19:08;;;;;;;0.30;0.30;;;2.90;99.90;;;;;;5055431;28;20066;-72
2022/04/10 03:21:34;;;;;;;1.35;0.70;;;3.00;99.90;;;;;;5020655;28;20036;-73
2022/04/10 03:24:01;;;;;;;1.95;0.73;;;3.00;99.90;;;;;;5054995;28;20365;-72
2022/04/10 03:26:27;;;;;;;0.75;0.75;;;3.00;99.90;;;;;;5036825;28;20167;-73
2022/04/10 03:28:53;;;;;;;2.05;1.65;;;3.00;99.90;;;;;;5036928;28;20058;-72
2022/04/10 03:31:23;;;;;;;0.50;0.50;;;3.00;99.90;;;;;;5037210;28;20029;-73
2022/04/10 03:33:49;;;;;;;0.75;0.75;;;2.90;99.90;;;;;;5037006;28;20024;-73
2022/04/10 03:36:15;;;;;;;0.40;0.40;;;3.00;99.90;;;;;;5036664;28;20029;-72
2022/04/10 03:38:41;;;;;;;0.68;0.65;;;3.00;99.90;;;;;;5036915;28;20067;-72
2022/04/10 03:41:07;;;;;;;0.30;0.30;;;3.00;99.90;;;;;;5054231;28;20455;-72
2022/04/10 03:43:33;;;;;;;0.68;0.68;;;2.90;99.90;;;;;;5068106;22;20132;-70
2022/04/10 03:45:59;;;;;;;1.85;0.98;;;2.90;99.90;;;;;;5036004;28;20120;-71
2022/04/10 03:48:25;;;;;;;0.73;0.73;;;2.80;99.90;;;;;;5054283;28;20023;-71
2022/04/10 03:50:51;;;;;;;0.20;0.20;;;2.90;99.90;;;;;;5019621;28;20119;-71
2022/04/10 03:53:17;;;;;;;0.40;0.40;;;2.80;99.90;;;;;;5053951;28;20029;-71
2022/04/10 03:55:43;;;;;;;0.30;0.30;;;2.80;99.90;;;;;;5035586;28;20404;-70
2022/04/10 03:58:09;;;;;;;0.20;0.20;;;3.00;99.90;;;;;;5036132;28;20025;-71
2022/04/10 04:00:38;;;;;;;0.40;0.40;;;2.90;99.90;;;;;;5035824;28;20468;-70
2022/04/10 04:03:04;;;;;;;0.30;0.30;;;2.90;99.90;;;;;;5053700;28;20171;-70
2022/04/10 04:05:29;;;;;;;0.47;0.47;;;2.90;99.90;;;;;;5053481;28;20071;-71
2022/04/10 04:07:55;;;;;;;0.75;0.75;;;2.90;99.90;;;;;;5035474;28;20116;-70
2022/04/10 04:10:21;;;;;;;0.22;0.22;;;2.70;99.90;;;;;;5053498;28;20476;-70
2022/04/10 04:12:47;;;;;;;0.20;0.20;;;2.70;99.90;;;;;;5053437;28;20035;-71
2022/04/10 04:15:13;;;;;;;0.30;0.30;;;2.80;99.90;;;;;;5053386;28;20025;-70
2022/04/10 04:17:39;;;;;;;0.90;0.90;;;2.80;99.90;;;;;;5053273;28;20163;-71
2022/04/10 04:20:06;;;;;;;0.68;0.68;;;2.60;99.90;;;;;;5035515;28;20025;-71
2022/04/10 04:22:33;;;;;;;0.30;0.30;;;2.60;99.90;;;;;;5035546;28;20047;-71
2022/04/10 04:24:59;;;;;;;0.30;0.30;;;2.60;99.90;;;;;;5035314;28;20463;-71
2022/04/10 04:27:26;;;;;;;0.40;0.40;;;2.70;99.90;;;;;;5035303;28;20029;-71
2022/04/10 04:29:51;;;;;;;0.40;0.40;;;2.80;99.90;;;;;;5053240;28;20074;-70
2022/04/10 04:32:17;;;;;;;0.20;0.20;;;2.70;99.90;;;;;;5053129;28;20385;-71
2022/04/10 04:34:43;;;;;;;0.30;0.30;;;2.80;99.90;;;;;;5034625;28;20040;-70
2022/04/10 04:37:09;;;;;;;0.40;0.40;;;2.70;99.90;;;;;;5018541;28;20029;-71
2022/04/10 04:39:35;;;;;;;0.50;0.50;;;2.60;99.90;;;;;;5035037;28;20675;-71
2022/04/10 04:42:01;;;;;;;0.98;0.60;;;2.70;99.90;;;;;;5034918;28;20096;-71
2022/04/10 04:44:30;;;;;;;0.30;0.30;;;2.80;99.90;;;;;;5035069;28;20041;-70
2022/04/10 04:46:59;;;;;;;0.30;0.30;;;2.80;99.90;;;;;;5052763;28;20116;-70
2022/04/10 04:49:26;;;;;;;0.43;0.43;;;2.80;99.90;;;;;;5052834;28;20097;-71
2022/04/10 04:51:52;;;;;;;0.55;0.55;;;2.60;99.90;;;;;;5018438;28;20098;-71
2022/04/10 04:54:17;;;;;;;0.40;0.40;;;2.50;99.90;;;;;;5052716;28;20492;-70
2022/04/10 04:56:43;;;;;;;0.93;0.70;;;2.40;99.90;;;;;;5052561;28;20033;-71
2022/04/10 04:59:09;;;;;;;3.03;1.83;;;2.40;99.90;;;;;;5034671;28;20029;-71
2022/04/10 05:01:34;;;;;;;0.30;0.30;;;2.30;99.90;;;;;;5035097;28;20021;-70
2022/04/10 05:04:00;;;;;;;0.30;0.30;;;2.30;99.90;;;;;;5018212;28;20107;-71
2022/04/10 05:06:26;;;;;;;0.28;0.28;;;2.40;99.90;;;;;;5034348;28;20039;-71
2022/04/10 05:08:53;;;;;;;0.40;0.40;;;2.50;99.90;;;;;;5052448;28;20025;-70
2022/04/10 05:11:18;;;;;;;0.60;0.60;;;2.60;99.90;;;;;;5052352;28;20048;-71
2022/04/10 05:13:44;;;;;;;5.90;0.88;;;2.50;99.90;;;;;;5052418;28;20064;-70
2022/04/10 05:16:10;;;;;;;0.30;0.30;;;2.70;99.90;;;;;;5052109;28;20029;-71
2022/04/10 05:18:36;;;;;;;1.00;0.93;;;2.80;99.90;;;;;;5052343;28;20107;-71
2022/04/10 05:21:03;;;;;;;0.30;0.30;;;2.90;99.90;;;;;;5034371;28;20117;-71
2022/04/10 05:23:29;;;;;;;0.47;0.47;;;2.80;99.90;;;;;;5034403;28;20048;-71
2022/04/10 05:25:55;;;;;;;1.75;1.00;;;2.80;99.90;;;;;;5034035;28;20394;-70
2022/04/10 05:28:22;;;;;;;0.40;0.40;;;2.80;99.90;;;;;;5034216;28;20036;-71
2022/04/10 05:30:48;;;;;;;0.30;0.30;;;2.80;99.90;;;;;;5052061;28;20025;-71
2022/04/10 05:33:14;;;;;;;0.35;0.35;;;2.90;99.90;;;;;;5034234;28;20021;-71
2022/04/10 05:35:40;;;;;;;0.95;0.95;;;3.00;99.90;;;;;;5052199;28;20039;-71
2022/04/10 05:38:06;;;;;;;0.77;0.77;;;2.90;99.90;;;;;;5034135;28;20087;-71
2022/04/10 05:40:32;;;;;;;0.30;0.30;;;2.90;99.90;;;;;;5034073;28;20060;-70
2022/04/10 05:42:58;;;;;;;0.40;0.40;;;3.00;99.90;;;;;;5034069;28;20076;-70
2022/04/10 05:45:23;;;;;;;0.25;0.25;;;2.90;99.90;;;;;;5052338;28;20388;-71
2022/04/10 05:47:49;;;;;;;1.10;1.10;;;2.90;99.90;;;;;;5033820;28;20032;-71
2022/04/10 05:50:16;;;;;;;0.77;0.60;;;3.10;99.90;;;;;;5034033;28;20029;-70
2022/04/10 05:52:44;;;;;;;2.95;1.98;;;3.10;99.90;;;;;;5052022;28;20044;-70
2022/04/10 05:55:11;;;;;;;0.80;0.70;;;3.10;99.90;;;;;;5051791;28;20033;-71
2022/04/10 05:57:37;;;;;;;0.20;0.20;;;3.10;99.90;;;;;;5051748;28;20455;-71
2022/04/10 06:00:10;;;;;;;1.52;1.42;;;3.10;99.90;;;;;;5033982;28;20473;-71
2022/04/10 06:02:36;;;;;;;0.25;0.25;;;3.10;99.90;;;;;;5034041;28;20017;-71
2022/04/10 06:05:01;;;;;;;0.40;0.40;;;3.20;99.90;;;;;;5033852;28;20113;-71
2022/04/10 06:07:27;;;;;;;5.05;2.22;;;3.30;99.90;;;;;;5051484;28;20036;-71
2022/04/10 06:09:53;;;;;;;0.93;0.93;;;3.30;99.90;;;;;;5051655;28;20079;-71
2022/04/10 06:12:18;;;;;;;4.97;1.08;;;3.30;99.90;;;;;;5051604;28;20020;-71
2022/04/10 06:14:44;;;;;;;2.65;1.88;;;3.20;99.90;;;;;;5051699;28;20096;-71
2022/04/10 06:17:10;;;;;;;0.40;0.40;;;3.20;99.90;;;;;;5051641;28;20037;-71
2022/04/10 06:19:36;;;;;;;0.65;0.60;;;3.10;99.90;;;;;;5034091;28;20021;-71
2022/04/10 06:22:02;;;;;;;0.65;0.38;;;3.20;99.90;;;;;;5051483;28;20024;-71
2022/04/10 06:24:28;;;;;;;0.30;0.30;;;3.00;99.90;;;;;;5051493;28;20029;-71
2022/04/10 06:26:54;;;;;;;0.40;0.40;;;3.10;99.90;;;;;;5051425;28;20025;-71
2022/04/10 06:29:20;;;;;;;0.43;0.43;;;3.20;99.90;;;;;;5033721;28;20040;-71
2022/04/10 06:31:47;;;;;;;0.50;0.50;;;3.40;99.90;;;;;;5051377;28;20389;-71
2022/04/10 06:34:13;;;;;;;1.88;1.75;;;3.30;99.90;;;;;;5051467;28;20033;-71
2022/04/10 06:36:39;;;;;;;0.98;0.98;;;3.30;99.90;;;;;;5033261;28;20036;-71
2022/04/10 06:39:05;;;;;;;0.40;0.40;;;3.20;99.90;;;;;;5033464;28;20104;-71
2022/04/10 06:41:32;;;;;;;1.40;1.30;;;3.20;99.90;;;;;;5051328;28;20075;-71
2022/04/10 06:43:58;;;;;;;0.30;0.30;;;3.10;99.90;;;;;;5051234;28;20116;-71
2022/04/10 06:46:26;;;;;;;0.80;0.65;;;3.10;99.90;;;;;;5033271;28;20055;-71
2022/04/10 06:48:52;;;;;;;1.13;1.02;;;3.30;99.90;;;;;;5033535;28;20029;-71
2022/04/10 06:51:18;;;;;;;0.90;0.85;;;3.30;99.90;;;;;;5051214;28;20028;-71
2022/04/10 06:53:45;;;;;;;0.90;0.90;;;3.20;99.90;;;;;;5051203;28;20088;-71
2022/04/10 06:56:11;;;;;;;1.02;1.02;;;3.20;99.90;;;;;;5050973;28;20064;-71
2022/04/10 06:58:36;;;;;;;1.10;1.08;;;3.30;99.90;;;;;;5052013;28;20138;-71
2022/04/10 07:01:02;;;;;;;2.08;1.15;;;3.40;99.90;;;;;;5063625;28;20159;-71
2022/04/10 07:03:28;;;;;;;0.73;0.73;;;3.40;99.90;;;;;;5065646;28;20046;-71
2022/04/10 07:05:54;;;;;;;2.28;1.65;;;3.50;99.90;;;;;;5053090;28;20051;-71
2022/04/10 07:08:20;;;;;;;7.55;2.05;;;3.70;99.90;;;;;;5061635;28;20091;-71
2022/04/10 07:10:46;;;;;;;29.23;26.20;;;3.70;99.90;;;;;;5032008;28;20048;-71
2022/04/10 07:13:18;;;;;;;0.30;0.30;;;3.80;99.90;;;;;;5054632;28;20100;-71
2022/04/10 07:15:50;;;;;;;2.63;0.93;;;3.90;99.90;;;;;;5049552;28;20495;-71
2022/04/10 07:18:16;;;;;;;1.00;0.60;;;4.00;99.90;;;;;;5056673;28;20075;-71
2022/04/10 07:20:42;;;;;;;0.20;0.20;;;3.90;99.90;;;;;;5074282;28;20078;-71
2022/04/10 07:25:53;;;;;;;1.20;1.10;;;4.00;99.90;;;;;;5056197;28;20028;-72
2022/04/10 07:28:20;;;;;;;0.30;0.30;;;4.10;99.90;;;;;;5074306;28;20017;-71
2022/04/10 07:30:46;;;;;;;3.30;3.03;;;4.30;99.90;;;;;;5074304;28;20032;-71
2022/04/10 07:33:12;;;;;;;0.20;0.20;;;4.30;99.90;;;;;;5051221;28;20040;-71
2022/04/10 07:35:44;;;;;;;1.55;1.02;;;4.50;99.90;;;;;;5062490;28;20029;-71
2022/04/10 07:38:11;;;;;;;0.40;0.40;;;4.40;99.90;;;;;;5054076;28;20396;-71
2022/04/10 07:40:40;;;;;;;0.20;0.20;;;4.20;99.90;;;;;;5036030;28;20041;-71
2022/04/10 07:43:06;;;;;;;0.50;0.50;;;4.10;99.90;;;;;;5055345;28;20119;-71
2022/04/10 07:48:16;;;;;;;0.73;0.73;;;4.00;99.90;;;;;;5073922;28;20028;-70
2022/04/10 07:50:43;;;;;;;0.40;0.40;;;4.00;99.90;;;;;;5062214;28;20570;-71
2022/04/10 07:53:09;;;;;;;0.63;0.57;;;4.10;99.90;;;;;;5053786;28;20107;-71
2022/04/10 07:55:34;;;;;;;0.50;0.50;;;4.40;99.90;;;;;;5053593;28;20102;-71
2022/04/10 07:58:01;;;;;;;0.93;0.93;;;4.50;99.90;;;;;;5053720;28;20021;-71
2022/04/10 08:00:32;;;;;;;0.63;0.63;;;4.50;99.90;;;;;;5053662;28;20039;-71
2022/04/10 08:02:58;;;;;;;3.53;3.20;;;4.40;99.90;;;;;;5035727;28;20078;-71
2022/04/10 08:05:24;;;;;;;1.88;1.13;;;4.20;99.90;;;;;;5053192;28;20631;-71
2022/04/10 08:07:50;;;;;;;1.15;0.47;;;4.00;99.90;;;;;;5065546;28;20111;-71
2022/04/10 08:10:16;;;;;;;0.75;0.75;;;3.80;99.90;;;;;;5071111;28;20024;-71
2022/04/10 08:12:44;;;;;;;4.57;0.65;;;3.40;99.90;;;;;;5063631;28;20103;-71
2022/04/10 08:15:11;;;;;;;0.90;0.85;;;3.50;99.90;;;;;;5051162;28;20492;-71
2022/04/10 08:17:37;;;;;;;0.20;0.20;;;3.50;99.90;;;;;;5051542;28;20047;-71
2022/04/10 08:20:05;;;;;;;0.28;0.28;;;3.60;99.90;;;;;;5055008;28;20052;-71
2022/04/10 08:22:32;;;;;;;3.35;2.75;;;3.70;99.90;;;;;;5035475;28;20025;-71
2022/04/10 08:25:04;;;;;;;1.00;0.98;;;3.80;99.90;;;;;;5069665;28;20020;-71
2022/04/10 08:27:30;;;;;;;3.35;1.65;;;3.80;99.90;;;;;;5072946;28;20029;-71
2022/04/10 08:29:57;;;;;;;1.65;1.55;;;4.10;99.90;;;;;;5073082;28;20103;-71
2022/04/10 08:32:23;;;;;;;0.40;0.40;;;4.50;99.90;;;;;;5072851;28;20085;-71
2022/04/10 08:34:49;;;;;;;0.77;0.77;;;4.90;99.90;;;;;;5072019;28;20103;-71
2022/04/10 08:37:14;;;;;;;0.60;0.60;;;5.40;99.90;;;;;;5054298;28;20020;-71
2022/04/10 08:39:40;;;;;;;1.00;1.00;;;5.80;99.90;;;;;;5054651;28;20365;-71
2022/04/10 08:42:07;;;;;;;0.30;0.30;;;5.70;99.90;;;;;;5057758;28;20064;-71
2022/04/10 08:44:33;;;;;;;3.03;2.03;;;5.80;99.90;;;;;;5058257;28;20169;-71
2022/04/10 08:47:00;;;;;;;10.88;1.40;;;5.90;99.90;;;;;;5072456;28;20035;-71
2022/04/10 08:49:29;;;;;;;0.38;0.38;;;6.10;99.90;;;;;;5044026;28;20387;-71
2022/04/10 08:51:56;;;;;;;3.17;1.92;;;6.20;99.90;;;;;;5052683;28;20021;-71
2022/04/10 08:54:23;;;;;;;6.00;2.38;;;6.20;99.90;;;;;;5052451;28;20017;-71
2022/04/10 08:56:52;;;;;;;0.43;0.43;;;6.40;99.90;;;;;;5053614;28;20434;-72
2022/04/10 08:59:19;;;;;;;0.55;0.55;;;6.00;99.90;;;;;;5072536;28;20116;-72
2022/04/10 09:01:45;;;;;;;0.30;0.30;;;6.10;99.90;;;;;;5072189;28;20476;-71
2022/04/10 09:04:13;;;;;;;0.88;0.88;;;6.10;99.90;;;;;;5054494;28;20115;-73
2022/04/10 09:06:42;;;;;;;1.48;1.38;;;6.60;99.90;;;;;;5072219;28;20024;-72
2022/04/10 09:09:12;;;;;;;9.63;4.95;;;7.00;99.90;;;;;;5072239;28;20027;-73
2022/04/10 09:11:40;;;;;;;1.27;1.17;;;7.30;99.90;;;;;;5054459;28;20081;-73
2022/04/10 09:14:06;;;;;;;1.38;1.27;;;6.60;99.90;;;;;;5052900;28;20025;-73
2022/04/10 09:16:32;;;;;;;0.68;0.68;;;6.70;99.90;;;;;;5054101;28;20132;-73
2022/04/10 09:19:10;;;;;;;0.63;0.63;;;6.90;99.90;;;;;;5072226;28;20048;-73
2022/04/10 09:21:40;;;;;;;0.50;0.50;;;6.80;99.90;;;;;;5071887;28;20029;-73
2022/04/10 09:24:14;;;;;;;3.00;2.70;;;7.20;94.50;;;;;;5072339;28;20426;-73
2022/04/10 09:26:57;;;;;;;2.90;2.47;;;7.60;87.40;;;;;;5053848;28;20060;-73
2022/04/10 09:29:24;;;;;;;0.73;0.73;;;8.20;87.90;;;;;;5039688;28;20464;-73
2022/04/10 09:31:52;;;;;;;2.17;0.95;;;8.00;79.20;;;;;;5051988;28;20391;-73
2022/04/10 09:34:24;;;;;;;2.00;1.00;;;8.20;73.20;;;;;;5052068;28;20044;-73
2022/04/10 09:37:01;;;;;;;1.90;1.20;;;8.50;70.40;;;;;;5033924;28;20083;-73
2022/04/10 09:39:34;;;;;;;0.98;0.93;;;9.40;69.80;;;;;;5017646;28;20068;-73
2022/04/10 09:42:08;;;;;;;0.40;0.35;;;9.50;69.80;;;;;;5051760;28;20044;-73
2022/04/10 09:44:38;;;;;;;1.38;1.23;;;9.60;68.20;;;;;;5033965;28;20036;-73
2022/04/10 09:49:37;;;;;;;1.00;0.98;;;8.50;78.20;;;;;;5022519;28;20053;-74
2022/04/10 09:52:07;;;;;;;1.45;1.13;;;7.90;84.80;;;;;;5031797;28;20021;-74
2022/04/10 09:54:39;;;;;;;5.32;2.15;;;7.10;92.30;;;;;;5030359;28;20116;-74
2022/04/10 09:57:09;;;;;;;2.88;0.90;;;6.70;96.70;;;;;;5013370;28;20026;-74
2022/04/10 09:59:43;;;;;;;4.95;1.70;;;6.00;99.90;;;;;;5031726;28;20049;-74
2022/04/10 10:02:17;;;;;;;1.83;0.98;;;5.70;99.90;;;;;;5028961;28;20137;-74
2022/04/10 10:04:45;;;;;;;4.72;1.92;;;5.60;99.90;;;;;;5031875;28;20053;-74
2022/04/10 10:07:11;;;;;;;2.17;0.93;;;6.00;99.90;;;;;;5031566;28;20372;-74
2022/04/10 10:09:38;;;;;;;0.20;0.20;;;6.10;99.90;;;;;;5029047;28;20105;-74
2022/04/10 10:12:06;;;;;;;0.70;0.70;;;6.40;99.90;;;;;;5000361;28;20037;-73
2022/04/10 10:14:33;;;;;;;2.65;2.28;;;6.20;99.90;;;;;;5010863;28;20109;-74
2022/04/10 10:17:00;;;;;;;0.22;0.22;;;6.80;99.90;;;;;;5015329;28;20030;-74
2022/04/10 10:19:29;;;;;;;1.35;0.85;;;7.50;99.90;;;;;;4997461;28;20662;-74
2022/04/10 10:21:55;;;;;;;0.90;0.77;;;7.50;98.80;;;;;;5012243;28;20026;-74
2022/04/10 10:24:24;;;;;;;6.15;1.35;;;7.00;95.90;;;;;;4990563;28;20033;-74
2022/04/10 10:27:12;;;;;;;2.13;1.40;;;6.90;97.70;;;;;;5007393;28;20030;-74
2022/04/10 10:29:50;;;;;;;1.00;0.93;;;7.60;95.20;;;;;;5003422;28;20563;-74
2022/04/10 10:32:30;;;;;;;0.55;0.55;;;7.70;93.50;;;;;;5029474;28;20037;-72
2022/04/10 10:34:56;;;;;;;0.55;0.55;;;8.50;94.20;;;;;;5016037;28;20087;-72
2022/04/10 10:37:31;;;;;;;0.50;0.50;;;9.00;90.00;;;;;;5034439;28;20477;-74
2022/04/10 10:39:58;;;;;;;0.20;0.20;;;9.20;84.70;;;;;;5034939;28;20025;-73
2022/04/10 10:42:24;;;;;;;0.17;0.17;;;9.90;84.70;;;;;;5035511;28;20206;-73
2022/04/10 10:44:51;;;;;;;4.75;1.30;;;10.70;74.80;;;;;;5035941;28;20039;-73
2022/04/10 10:47:26;;;;;;;1.17;1.08;;;11.00;70.20;;;;;;5035734;28;20387;-73
2022/04/10 10:49:54;;;;;;;0.65;0.63;;;10.10;69.80;;;;;;5017704;28;20324;-73
2022/04/10 10:52:21;;;;;;;0.30;0.30;;;10.10;69.30;;;;;;5035370;28;20021;-73
2022/04/10 10:54:58;;;;;;;2.38;0.90;;;10.30;71.20;;;;;;5017198;28;20405;-73
2022/04/10 10:57:40;;;;;;;0.30;0.30;;;11.60;67.50;;;;;;5015681;28;20048;-73
2022/04/10 11:00:10;;;;;;;0.52;0.52;;;12.10;66.60;;;;;;5016330;28;20033;-73
2022/04/10 11:02:37;;;;;;;0.80;0.80;;;11.50;64.10;;;;;;5035249;28;20481;-73
2022/04/10 11:05:33;;;;;;;1.05;0.95;;;10.40;66.40;;;;;;5035492;28;20099;-73
2022/04/10 11:08:16;;;;;;;1.35;1.25;;;8.90;79.10;;;;;;5018024;28;20022;-73
2022/04/10 11:11:00;;;;;;;0.85;0.85;;;8.40;85.00;;;;;;5017582;28;20116;-73
2022/04/10 11:13:37;;;;;;;0.20;0.20;;;8.50;88.40;;;;;;5035034;28;20031;-73
2022/04/10 11:16:14;;;;;;;1.10;0.52;;;9.00;83.60;;;;;;5034967;28;20040;-73
2022/04/10 11:18:48;;;;;;;0.77;0.77;;;9.30;79.10;;;;;;5035326;28;20037;-73
2022/04/10 11:21:19;;;;;;;0.88;0.88;;;9.00;78.10;;;;;;5034911;28;20074;-73
2022/04/10 11:23:45;;;;;;;0.30;0.30;;;8.70;76.80;;;;;;5034837;28;20030;-73
2022/04/10 11:26:16;;;;;;;0.75;0.75;;;8.10;78.80;;;;;;5034635;28;20100;-72
2022/04/10 11:29:00;;;;;;;0.20;0.20;;;8.30;78.10;;;;;;5034830;28;20026;-73
2022/04/10 11:31:31;;;;;;;8.70;1.10;;;8.70;76.10;;;;;;5035313;28;20358;-73
2022/04/10 11:34:14;;;;;;;0.43;0.43;;;8.50;69.80;;;;;;5017014;28;20033;-73
2022/04/10 11:36:52;;;;;;;0.57;0.57;;;8.30;69.50;;;;;;5034795;28;20389;-73
2022/04/10 11:39:32;;;;;;;0.73;0.73;;;8.60;69.80;;;;;;5034703;28;20025;-73
2022/04/10 11:42:03;;;;;;;0.65;0.65;;;8.70;69.60;;;;;;5028337;28;20036;-73
2022/04/10 11:44:30;;;;;;;0.35;0.30;;;9.50;70.60;;;;;;5015013;28;20018;-73
2022/04/10 11:46:59;;;;;;;0.80;0.80;;;10.20;67.10;;;;;;5014551;28;20030;-73
2022/04/10 11:49:25;;;;;;;0.40;0.40;;;11.00;64.00;;;;;;5014831;28;20038;-73
2022/04/10 11:51:57;;;;;;;0.20;0.20;;;11.20;62.20;;;;;;4997735;28;20577;-73
2022/04/10 11:54:33;;;;;;;0.65;0.65;;;11.20;59.80;;;;;;5014491;28;20056;-74
2022/04/10 11:57:04;;;;;;;0.28;0.28;;;11.00;61.20;;;;;;5014337;28;20041;-73
2022/04/10 11:59:48;;;;;;;0.30;0.30;;;10.40;62.40;;;;;;4996638;28;20032;-73
2022/04/10 12:02:14;;;;;;;0.50;0.50;;;10.50;65.30;;;;;;5014302;28;20129;-73
2022/04/10 12:04:41;;;;;;;0.20;0.20;;;10.50;64.30;;;;;;5014256;28;20105;-72
2022/04/10 12:07:19;;;;;;;3.88;1.48;;;10.10;65.30;;;;;;5014221;28;20107;-73
2022/04/10 12:09:54;;;;;;;0.73;0.73;;;9.70;64.60;;;;;;5014257;28;20540;-75
2022/04/10 12:12:33;;;;;;;0.70;0.40;;;9.60;64.00;;;;;;5014071;28;20025;-72
2022/04/10 12:14:59;;;;;;;1.17;0.68;;;9.10;68.00;;;;;;5014182;28;20026;-73
2022/04/10 12:17:24;;;;;;;0.20;0.20;;;8.80;69.70;;;;;;5013998;28;20033;-73
2022/04/10 12:19:54;;;;;;;0.65;0.65;;;8.60;71.80;;;;;;5013594;28;20025;-72
2022/04/10 12:22:23;;;;;;;0.95;0.77;;;8.40;70.80;;;;;;4994829;28;20234;-73
2022/04/10 12:24:55;;;;;;;0.40;0.40;;;8.30;72.60;;;;;;4995845;28;20504;-73
2022/04/10 12:27:22;;;;;;;2.63;0.73;;;8.00;73.10;;;;;;5014160;28;20105;-73
2022/04/10 12:29:48;;;;;;;4.53;0.75;;;7.90;73.40;;;;;;5013855;28;20492;-74
2022/04/10 12:32:15;;;;;;;2.03;1.08;;;7.70;73.70;;;;;;5022676;28;20490;-72
2022/04/10 12:34:42;;;;;;;0.40;0.40;;;7.70;75.80;;;;;;4996086;28;20033;-70
2022/04/10 12:37:10;;;;;;;1.33;1.17;;;8.00;78.40;;;;;;5012583;28;20033;-71
2022/04/10 12:39:36;;;;;;;1.20;1.02;;;8.00;77.20;;;;;;5011657;28;20072;-71
2022/04/10 12:42:10;;;;;;;0.43;0.43;;;7.90;81.90;;;;;;5011615;28;20030;-71
2022/04/10 12:44:37;;;;;;;0.73;0.63;;;7.90;83.30;;;;;;5011660;28;20385;-71
2022/04/10 12:47:06;;;;;;;0.20;0.20;;;7.90;86.30;;;;;;5012098;28;20018;-71
2022/04/10 12:49:35;;;;;;;4.55;2.47;;;7.70;86.10;;;;;;5016585;28;20045;-74
2022/04/10 12:52:04;;;;;;;0.52;0.52;;;7.20;86.80;;;;;;4997711;28;20025;-72
2022/04/10 12:54:42;;;;;;;1.55;1.30;;;7.30;90.30;;;;;;5014494;28;20022;-72
2022/04/10 12:57:13;;;;;;;1.23;1.05;;;7.40;91.50;;;;;;5013929;28;20087;-72
2022/04/10 12:59:44;;;;;;;0.20;0.20;;;7.00;92.10;;;;;;5014445;28;20470;-72
2022/04/10 13:02:30;;;;;;;1.42;0.50;;;6.80;92.50;;;;;;4996602;28;20029;-72
2022/04/10 13:05:00;;;;;;;0.30;0.30;;;6.50;92.40;;;;;;5014371;28;20386;-72
2022/04/10 13:07:27;;;;;;;4.75;1.10;;;6.50;91.10;;;;;;5014013;28;20105;-72